Time;durP1;ratioP1;P1;durP2;ratioP2;P2;SDS_P1;SDS_P2;PMS_P1;PMS_P2;Temp;Humidity;BMP_temperature;BMP_pressure;BME280_temperature;BME280_humidity;BME280_pressure;Samples;Min_cycle;Max_cycle;Signal;HPM_P1;HPM_P2
2023/04/27 00:01:20;;;;;;;5.45;4.40;;;;;;;2.83;100.00;102110.72;5029202;28;20053;-80
2023/04/27 00:03:49;;;;;;;5.82;3.90;;;;;;;2.83;100.00;102105.50;4988867;28;20115;-81
2023/04/27 00:06:17;;;;;;;6.25;4.35;;;;;;;2.82;100.00;102102.03;5028391;28;20513;-80
2023/04/27 00:08:44;;;;;;;10.80;4.60;;;;;;;2.83;100.00;102108.13;4988069;28;20061;-80
2023/04/27 00:11:13;;;;;;;9.60;5.60;;;;;;;2.81;100.00;102112.34;5012837;28;20064;-81
2023/04/27 00:13:40;;;;;;;9.15;4.93;;;;;;;2.80;100.00;102110.53;5025200;28;20438;-81
2023/04/27 00:16:07;;;;;;;8.77;6.50;;;;;;;2.78;100.00;102120.91;5032209;28;20041;-81
2023/04/27 00:18:35;;;;;;;10.98;6.18;;;;;;;2.78;100.00;102118.28;5038549;28;20111;-80
2023/04/27 00:21:03;;;;;;;9.38;6.55;;;;;;;2.78;100.00;102122.56;5009795;28;20816;-80
2023/04/27 00:23:30;;;;;;;8.93;6.40;;;;;;;2.79;100.00;102119.19;5003722;28;20061;-80
2023/04/27 00:25:57;;;;;;;9.18;7.10;;;;;;;2.77;100.00;102116.50;5008559;28;20097;-80
2023/04/27 00:28:25;;;;;;;14.95;6.78;;;;;;;2.76;100.00;102121.59;5015066;28;20418;-81
2023/04/27 00:30:53;;;;;;;10.10;6.82;;;;;;;2.76;100.00;102119.00;5030992;28;20068;-80
2023/04/27 00:33:21;;;;;;;9.48;7.00;;;;;;;2.74;100.00;102126.72;5028179;28;20052;-81
2023/04/27 00:35:48;;;;;;;9.07;5.82;;;;;;;2.75;100.00;102127.63;4998192;28;20072;-81
2023/04/27 00:38:15;;;;;;;7.93;5.75;;;;;;;2.75;100.00;102128.53;5020380;28;20064;-80
2023/04/27 00:40:43;;;;;;;9.27;6.55;;;;;;;2.77;100.00;102126.91;5042295;28;20041;-80
2023/04/27 00:43:10;;;;;;;10.00;5.10;;;;;;;2.81;100.00;102122.75;5015279;28;20044;-80
2023/04/27 00:45:41;;;;;;;10.63;5.15;;;;;;;2.82;100.00;102115.03;5011001;28;20049;-81
2023/04/27 00:48:10;;;;;;;8.27;5.60;;;;;;;2.86;100.00;102110.91;5027192;28;20049;-81
2023/04/27 00:50:38;;;;;;;6.10;5.10;;;;;;;2.90;100.00;102118.06;4990227;28;20080;-81
2023/04/27 00:53:08;;;;;;;7.32;4.43;;;;;;;2.94;100.00;102120.03;5025803;28;20049;-81
2023/04/27 00:55:35;;;;;;;6.88;5.90;;;;;;;3.00;100.00;102125.56;4997449;28;20160;-80
2023/04/27 00:58:03;;;;;;;8.35;4.45;;;;;;;3.04;100.00;102127.50;5010382;28;20074;-81
2023/04/27 01:00:30;;;;;;;7.10;4.40;;;;;;;3.08;100.00;102125.97;5045510;28;20041;-80
2023/04/27 01:03:00;;;;;;;6.57;4.03;;;;;;;3.16;100.00;102142.00;5028740;28;20049;-81
2023/04/27 01:05:27;;;;;;;5.45;4.80;;;;;;;3.20;100.00;102144.00;5004550;28;20458;-81
2023/04/27 01:07:57;;;;;;;7.82;4.40;;;;;;;3.21;100.00;102146.66;5017576;28;20052;-80
2023/04/27 01:10:27;;;;;;;4.38;3.75;;;;;;;3.23;100.00;102145.06;5005941;28;20053;-81
2023/04/27 01:12:54;;;;;;;4.90;4.07;;;;;;;3.27;100.00;102146.09;5023476;28;20053;-81
2023/04/27 01:15:22;;;;;;;4.28;3.78;;;;;;;3.31;100.00;102150.66;5047366;28;20057;-81
2023/04/27 01:18:00;;;;;;;6.78;4.15;;;;;;;3.34;100.00;102137.78;5040595;28;20060;-80
2023/04/27 01:20:29;;;;;;;5.80;4.22;;;;;;;3.39;100.00;102128.50;5030865;28;20045;-81
2023/04/27 01:22:57;;;;;;;5.75;3.50;;;;;;;3.41;100.00;102121.66;4987990;28;20061;-81
2023/04/27 01:25:25;;;;;;;4.82;3.88;;;;;;;3.42;100.00;102126.09;4991800;28;20061;-80
2023/04/27 01:27:53;;;;;;;6.13;3.83;;;;;;;3.44;100.00;102119.25;5000593;28;20060;-80
2023/04/27 01:30:23;;;;;;;5.50;4.50;;;;;;;3.44;100.00;102121.84;5020523;28;20045;-81
2023/04/27 01:32:51;;;;;;;4.82;4.13;;;;;;;3.45;100.00;102118.41;5038799;28;20049;-80
2023/04/27 01:35:19;;;;;;;5.45;3.78;;;;;;;3.45;100.00;102117.53;5007594;28;20037;-80
2023/04/27 01:37:47;;;;;;;7.53;4.50;;;;;;;3.45;100.00;102121.00;4944012;28;20050;-80
2023/04/27 01:40:17;;;;;;;4.45;3.92;;;;;;;3.44;100.00;102111.41;5032028;28;20064;-80
2023/04/27 01:42:46;;;;;;;7.72;4.65;;;;;;;3.42;100.00;102113.06;5011282;28;20060;-80
2023/04/27 01:45:13;;;;;;;5.57;4.10;;;;;;;3.41;100.00;102112.97;5027664;28;20049;-79
2023/04/27 01:47:40;;;;;;;10.02;4.40;;;;;;;3.37;100.00;102111.91;5044560;28;20098;-78
2023/04/27 01:50:08;;;;;;;5.70;3.65;;;;;;;3.33;100.00;102112.56;5019479;28;20097;-81
2023/04/27 01:52:35;;;;;;;5.20;4.43;;;;;;;3.34;100.00;102121.28;5004097;28;20121;-79
2023/04/27 01:55:03;;;;;;;7.18;4.07;;;;;;;3.29;100.00;102121.94;5011464;28;20045;-80
2023/04/27 01:57:31;;;;;;;4.97;3.90;;;;;;;3.28;100.00;102114.91;4975028;28;20064;-79
2023/04/27 01:59:58;;;;;;;7.85;4.20;;;;;;;3.25;100.00;102126.88;5004169;28;20048;-80
2023/04/27 02:02:26;;;;;;;5.18;4.07;;;;;;;3.23;100.00;102119.00;4996787;28;20064;-80
2023/04/27 02:04:53;;;;;;;5.60;4.03;;;;;;;3.20;100.00;102128.34;5012538;28;20052;-79
2023/04/27 02:07:21;;;;;;;4.43;3.92;;;;;;;3.15;100.00;102122.00;4998385;28;20037;-80
2023/04/27 02:09:48;;;;;;;4.80;4.35;;;;;;;3.10;100.00;102114.84;4996894;28;20044;-79
2023/04/27 02:12:16;;;;;;;14.02;4.35;;;;;;;3.07;100.00;102114.66;5027823;28;20055;-80
2023/04/27 02:14:43;;;;;;;4.95;4.40;;;;;;;3.04;100.00;102119.69;5010979;28;20495;-79
2023/04/27 02:17:10;;;;;;;7.32;4.40;;;;;;;3.02;100.00;102123.03;5027668;28;20044;-80
2023/04/27 02:19:38;;;;;;;4.93;4.22;;;;;;;3.00;100.00;102117.75;5010616;28;20061;-80
2023/04/27 02:22:11;;;;;;;4.97;4.53;;;;;;;2.95;100.00;102129.63;4981480;28;20049;-80
2023/04/27 02:24:39;;;;;;;5.28;4.07;;;;;;;2.93;100.00;102128.66;4976897;28;20399;-80
2023/04/27 02:27:06;;;;;;;6.85;3.97;;;;;;;2.90;100.00;102126.75;5039189;28;20056;-80
2023/04/27 02:29:37;;;;;;;4.50;4.10;;;;;;;2.88;100.00;102119.69;5016874;28;20503;-79
2023/04/27 02:32:05;;;;;;;5.10;4.60;;;;;;;2.86;100.00;102121.31;5025585;28;20049;-79
2023/04/27 02:34:32;;;;;;;5.10;3.60;;;;;;;2.84;100.00;102125.53;5031227;28;20053;-80
2023/04/27 02:37:00;;;;;;;6.07;3.90;;;;;;;2.81;100.00;102127.97;5017741;28;20042;-81
2023/04/27 02:39:27;;;;;;;7.90;4.28;;;;;;;2.79;100.00;102127.00;5016409;28;20052;-81
2023/04/27 02:41:55;;;;;;;5.15;3.30;;;;;;;2.76;100.00;102130.34;4975094;28;20103;-81
2023/04/27 02:44:22;;;;;;;4.90;3.88;;;;;;;2.74;100.00;102124.13;5036375;28;20052;-81
2023/04/27 02:46:50;;;;;;;7.47;3.95;;;;;;;2.71;100.00;102126.56;5028473;28;20681;-81
2023/04/27 02:49:17;;;;;;;4.55;4.00;;;;;;;2.68;100.00;102129.00;5039495;28;20049;-81
2023/04/27 02:51:45;;;;;;;4.47;3.90;;;;;;;2.67;100.00;102125.50;5047242;28;20490;-81
2023/04/27 02:54:12;;;;;;;7.57;4.47;;;;;;;2.65;100.00;102116.72;5003823;28;20056;-81
2023/04/27 02:56:39;;;;;;;7.50;4.30;;;;;;;2.64;100.00;102122.72;5012388;28;20048;-80
2023/04/27 02:59:10;;;;;;;7.28;4.97;;;;;;;2.62;100.00;102116.53;5019485;28;20049;-80
2023/04/27 03:01:38;;;;;;;4.70;4.28;;;;;;;2.62;100.00;102120.84;5050197;28;20053;-81
2023/04/27 03:04:07;;;;;;;7.80;4.20;;;;;;;2.61;100.00;102114.75;5027056;28;20064;-81
2023/04/27 03:06:35;;;;;;;5.13;4.13;;;;;;;2.59;100.00;102107.66;5031633;28;20075;-81
2023/04/27 03:09:02;;;;;;;4.88;4.38;;;;;;;2.56;100.00;102116.19;5034457;28;20046;-81
2023/04/27 03:11:30;;;;;;;4.72;4.30;;;;;;;2.54;100.00;102110.00;4992909;28;20372;-82
2023/04/27 03:13:57;;;;;;;4.65;3.58;;;;;;;2.48;100.00;102113.16;5018582;28;20427;-82
2023/04/27 03:16:24;;;;;;;6.10;4.15;;;;;;;2.44;100.00;102126.81;5021438;28;20041;-79
2023/04/27 03:18:52;;;;;;;7.82;4.72;;;;;;;2.41;100.00;102120.53;5008828;28;20797;-80
2023/04/27 03:21:19;;;;;;;5.47;4.35;;;;;;;2.39;100.00;102122.16;5047530;28;20045;-81
2023/04/27 03:23:48;;;;;;;5.75;4.38;;;;;;;2.33;100.00;102115.78;5046337;28;20057;-81
2023/04/27 03:26:15;;;;;;;6.88;4.45;;;;;;;2.31;100.00;102119.13;5009725;28;20048;-81
2023/04/27 03:28:43;;;;;;;5.53;4.95;;;;;;;2.28;100.00;102119.81;4990529;28;20052;-80
2023/04/27 03:31:14;;;;;;;7.68;5.05;;;;;;;2.25;100.00;102114.47;5035601;28;20766;-81
2023/04/27 03:33:41;;;;;;;5.72;4.82;;;;;;;2.22;100.00;102124.69;5031127;28;20049;-80
2023/04/27 03:36:10;;;;;;;10.80;5.15;;;;;;;2.19;100.00;102119.28;5038310;28;20072;-81
2023/04/27 03:38:41;;;;;;;8.07;5.13;;;;;;;2.16;100.00;102116.53;5041644;28;20399;-80
2023/04/27 03:41:11;;;;;;;6.03;4.80;;;;;;;2.14;100.00;102119.03;5031245;28;20056;-80
2023/04/27 03:43:38;;;;;;;7.13;4.82;;;;;;;2.13;100.00;102119.84;5003815;28;20335;-80
2023/04/27 03:46:09;;;;;;;5.45;4.95;;;;;;;2.11;100.00;102115.38;5005466;28;20053;-80
2023/04/27 03:48:36;;;;;;;7.68;5.28;;;;;;;2.12;100.00;102106.78;5017765;28;20053;-80
2023/04/27 03:51:05;;;;;;;7.30;5.20;;;;;;;2.12;100.00;102104.16;5017305;28;20048;-80
2023/04/27 03:53:33;;;;;;;6.32;4.60;;;;;;;2.11;100.00;102115.38;5030922;28;20068;-80
2023/04/27 03:56:01;;;;;;;6.82;5.35;;;;;;;2.09;100.00;102110.06;5018756;28;20045;-79
2023/04/27 03:58:28;;;;;;;5.72;5.22;;;;;;;2.08;100.00;102122.97;4991699;28;20042;-80
2023/04/27 04:01:13;;;;;;;5.80;5.10;;;;;;;2.08;100.00;102109.97;4995092;28;20057;-79
2023/04/27 04:03:41;;;;;;;5.68;4.80;;;;;;;2.09;100.00;102111.78;5016447;28;20053;-79
2023/04/27 04:06:09;;;;;;;6.18;5.03;;;;;;;2.07;100.00;102103.00;5026797;28;20049;-80
2023/04/27 04:08:38;;;;;;;5.97;4.47;;;;;;;2.06;100.00;102119.38;5027602;28;20068;-80
2023/04/27 04:11:06;;;;;;;5.90;4.50;;;;;;;2.05;100.00;102120.22;5038423;28;20049;-79
2023/04/27 04:13:35;;;;;;;7.55;4.78;;;;;;;2.04;100.00;102119.31;5003219;28;20399;-80
2023/04/27 04:16:08;;;;;;;8.10;5.68;;;;;;;2.03;100.00;102114.91;5041182;28;20045;-78
2023/04/27 04:18:36;;;;;;;6.22;4.88;;;;;;;2.04;100.00;102123.59;5023709;28;20048;-79
2023/04/27 04:21:05;;;;;;;7.68;5.25;;;;;;;2.05;100.00;102120.22;5032925;28;20056;-80
2023/04/27 04:23:32;;;;;;;17.45;10.32;;;;;;;2.07;100.00;102123.81;5009186;28;20056;-80
2023/04/27 04:26:01;;;;;;;14.73;9.30;;;;;;;2.09;100.00;102125.66;5026992;28;20061;-79
2023/04/27 04:28:33;;;;;;;11.27;8.23;;;;;;;2.13;100.00;102129.34;4995855;28;20835;-80
2023/04/27 04:31:04;;;;;;;7.43;6.05;;;;;;;2.17;100.00;102127.81;5026602;28;20056;-80
2023/04/27 04:33:32;;;;;;;5.82;5.22;;;;;;;2.20;100.00;102125.41;5009901;28;20049;-79
2023/04/27 04:36:03;;;;;;;7.47;5.57;;;;;;;2.24;100.00;102133.47;5014756;28;20041;-81
2023/04/27 04:38:32;;;;;;;6.65;5.25;;;;;;;2.30;100.00;102135.53;5004790;28;20468;-79
2023/04/27 04:41:00;;;;;;;6.47;5.45;;;;;;;2.40;100.00;102135.25;5035234;28;20045;-80
2023/04/27 04:43:31;;;;;;;6.85;5.13;;;;;;;2.53;100.00;102132.53;5027470;28;20056;-80
2023/04/27 04:46:02;;;;;;;7.43;5.38;;;;;;;2.81;100.00;102128.84;4989170;28;20053;-79
2023/04/27 04:48:31;;;;;;;7.03;5.50;;;;;;;3.23;100.00;102131.09;4991926;28;20387;-80
2023/04/27 04:50:58;;;;;;;6.57;5.40;;;;;;;3.51;100.00;102121.31;5026570;28;20056;-79
2023/04/27 04:53:25;;;;;;;6.95;5.00;;;;;;;3.69;100.00;102112.69;4990216;28;20040;-79
2023/04/27 04:55:55;;;;;;;14.05;8.57;;;;;;;3.78;100.00;102115.78;5016163;28;20041;-79
2023/04/27 04:58:23;;;;;;;7.65;5.65;;;;;;;3.81;100.00;102108.09;5007222;28;20050;-80
2023/04/27 05:00:50;;;;;;;6.93;5.20;;;;;;;3.92;100.00;102112.97;5006931;28;20045;-80
2023/04/27 05:03:19;;;;;;;6.97;5.03;;;;;;;4.00;100.00;102112.53;5017974;28;20518;-80
2023/04/27 05:05:47;;;;;;;8.38;5.07;;;;;;;4.02;100.00;102104.78;5001749;28;20061;-80
2023/04/27 05:08:15;;;;;;;5.50;5.00;;;;;;;4.14;100.00;102096.66;5023013;28;20052;-80
2023/04/27 05:10:50;;;;;;;9.35;5.53;;;;;;;4.40;100.00;102105.75;5005489;28;20064;-80
2023/04/27 05:13:18;;;;;;;8.55;5.03;;;;;;;4.62;100.00;102102.47;5011703;28;20148;-79
2023/04/27 05:15:45;;;;;;;6.57;5.35;;;;;;;4.56;100.00;102113.53;5046073;28;20053;-80
2023/04/27 05:18:13;;;;;;;6.60;5.05;;;;;;;4.48;100.00;102117.50;4991393;28;20495;-80
2023/04/27 05:20:40;;;;;;;4.63;4.13;;;;;;;4.34;100.00;102122.03;5013927;28;20414;-81
2023/04/27 05:23:08;;;;;;;6.03;5.25;;;;;;;4.25;100.00;102124.19;5029858;28;20053;-81
2023/04/27 05:25:40;;;;;;;8.93;5.22;;;;;;;4.17;100.00;102134.22;5016586;28;20477;-81
2023/04/27 05:28:08;;;;;;;6.03;4.60;;;;;;;4.11;100.00;102144.38;5038909;28;20044;-79
2023/04/27 05:30:36;;;;;;;6.10;4.93;;;;;;;4.06;100.00;102138.94;5016335;28;20050;-82
2023/04/27 05:33:04;;;;;;;11.02;5.45;;;;;;;4.06;100.00;102140.63;4984869;28;20040;-81
2023/04/27 05:35:32;;;;;;;6.25;4.75;;;;;;;4.03;100.00;102157.03;5032843;28;20041;-82
2023/04/27 05:38:00;;;;;;;7.13;4.93;;;;;;;4.00;100.00;102161.19;5019788;28;20087;-81
2023/04/27 05:40:28;;;;;;;5.40;4.63;;;;;;;4.06;100.00;102165.03;5032924;28;20041;-79
2023/04/27 05:42:55;;;;;;;8.75;4.65;;;;;;;4.51;100.00;102156.78;5031045;28;20065;-79
2023/04/27 05:45:22;;;;;;;8.60;5.15;;;;;;;4.80;100.00;102168.66;5034734;28;20525;-79
2023/04/27 05:47:50;;;;;;;7.57;4.53;;;;;;;4.98;100.00;102166.00;5005537;28;20502;-80
2023/04/27 05:50:20;;;;;;;6.38;4.65;;;;;;;5.20;100.00;102161.78;5014879;28;20414;-80
2023/04/27 05:52:47;;;;;;;7.07;4.15;;;;;;;5.30;100.00;102158.75;5021711;28;20055;-80
2023/04/27 05:55:15;;;;;;;6.13;4.53;;;;;;;5.37;100.00;102160.84;5019144;28;20037;-80
2023/04/27 05:57:42;;;;;;;6.55;4.68;;;;;;;5.50;100.00;102174.44;5005932;28;20060;-81
2023/04/27 06:00:11;;;;;;;8.02;5.20;;;;;;;5.84;100.00;102159.44;5020675;28;20053;-81
2023/04/27 06:02:39;;;;;;;6.22;4.93;;;;;;;6.28;100.00;102156.06;5013766;28;20049;-81
2023/04/27 06:05:09;;;;;;;4.20;3.80;;;;;;;6.85;100.00;102150.50;5016268;28;20052;-81
2023/04/27 06:07:36;;;;;;;8.68;4.40;;;;;;;7.17;100.00;102149.13;5046392;28;20064;-81
2023/04/27 06:10:05;;;;;;;6.22;4.55;;;;;;;7.31;100.00;102153.13;5036200;28;20068;-82
2023/04/27 06:12:35;;;;;;;6.22;4.20;;;;;;;7.37;100.00;102148.16;4991906;28;20410;-80
2023/04/27 06:15:07;;;;;;;6.30;4.90;;;;;;;7.37;100.00;102145.53;5009001;28;20045;-81
2023/04/27 06:17:37;;;;;;;5.18;4.68;;;;;;;7.38;100.00;102149.03;5043507;28;20053;-81
2023/04/27 06:20:08;;;;;;;4.90;4.13;;;;;;;7.35;100.00;102149.81;4998407;28;20052;-81
2023/04/27 06:22:38;;;;;;;;;;;;;;;7.33;100.00;102140.09;5015500;28;20495;-79
2023/04/27 06:25:07;;;;;;;8.13;4.57;;;;;;;7.35;100.00;102144.59;5039710;28;19921;-80
2023/04/27 06:27:36;;;;;;;6.40;4.30;;;;;;;7.40;100.00;102144.75;5035108;28;20060;-79
2023/04/27 06:30:05;;;;;;;6.40;3.78;;;;;;;7.35;100.00;102156.78;5007034;28;20033;-82
2023/04/27 06:32:32;;;;;;;8.68;4.13;;;;;;;7.34;100.00;102149.75;5004192;28;20045;-80
2023/04/27 06:35:03;;;;;;;5.72;4.30;;;;;;;7.50;100.00;102159.06;4996582;28;20053;-81
2023/04/27 06:37:31;;;;;;;5.15;3.90;;;;;;;7.75;100.00;102152.97;5041760;28;20061;-79
2023/04/27 06:39:58;;;;;;;4.53;3.95;;;;;;;8.17;100.00;102139.56;5007205;28;20486;-79
2023/04/27 06:42:26;;;;;;;5.20;3.78;;;;;;;8.39;100.00;102133.28;5025492;28;20057;-79
2023/04/27 06:44:55;;;;;;;8.82;3.85;;;;;;;8.38;100.00;102134.16;4973306;28;20049;-78
2023/04/27 06:47:22;;;;;;;4.10;3.30;;;;;;;8.34;100.00;102137.53;5008322;28;20045;-79
2023/04/27 06:49:50;;;;;;;8.55;4.22;;;;;;;8.24;100.00;102145.91;4989924;28;20037;-78
2023/04/27 06:52:18;;;;;;;6.82;3.40;;;;;;;8.13;100.00;102149.09;5034454;28;20057;-79
2023/04/27 06:54:45;;;;;;;6.10;3.85;;;;;;;8.00;100.00;102144.25;5039284;28;20051;-79
2023/04/27 06:57:13;;;;;;;5.35;3.50;;;;;;;7.96;100.00;102147.63;5050573;28;20410;-79
2023/04/27 06:59:41;;;;;;;6.82;4.35;;;;;;;7.99;100.00;102143.34;5036427;28;20048;-78
2023/04/27 07:02:08;;;;;;;4.55;3.67;;;;;;;8.08;100.00;102141.88;5015757;28;20516;-79
2023/04/27 07:04:36;;;;;;;7.60;4.03;;;;;;;8.12;100.00;102141.16;5020087;28;20049;-78
2023/04/27 07:07:08;;;;;;;6.70;4.45;;;;;;;8.17;100.00;102131.69;5006683;28;20045;-79
2023/04/27 07:09:36;;;;;;;5.10;3.70;;;;;;;8.22;100.00;102123.97;5019982;28;20053;-80
2023/04/27 07:12:03;;;;;;;7.03;3.47;;;;;;;8.25;100.00;102131.97;5015976;28;20042;-80
2023/04/27 07:14:32;;;;;;;10.65;3.38;;;;;;;8.25;100.00;102131.97;5015974;28;20060;-80
2023/04/27 07:17:00;;;;;;;6.40;3.08;;;;;;;8.32;100.00;102134.84;5022652;28;20047;-81
2023/04/27 07:19:27;;;;;;;5.53;3.50;;;;;;;8.49;100.00;102134.53;5011102;28;20036;-81
2023/04/27 07:21:55;;;;;;;5.45;2.97;;;;;;;8.64;100.00;102134.09;4972541;28;20064;-79
2023/04/27 07:24:22;;;;;;;7.70;3.33;;;;;;;8.83;100.00;102133.88;4995264;28;20037;-79
2023/04/27 07:26:50;;;;;;;6.50;3.13;;;;;;;9.00;100.00;102138.72;4997293;28;20046;-80
2023/04/27 07:29:17;;;;;;;5.53;3.03;;;;;;;9.17;100.00;102138.41;4998033;28;20502;-79
2023/04/27 07:31:54;;;;;;;2.70;2.50;;;;;;;9.25;100.00;102141.25;5020994;28;20068;-79
2023/04/27 07:34:22;;;;;;;5.93;2.50;;;;;;;9.28;100.00;102136.09;5003347;28;20064;-79
2023/04/27 07:36:54;;;;;;;7.90;2.95;;;;;;;9.25;100.00;102146.50;5000177;28;20434;-80
2023/04/27 07:39:22;;;;;;;6.00;2.40;;;;;;;9.28;100.00;102143.06;5030968;28;20049;-79
2023/04/27 07:41:50;;;;;;;5.38;2.45;;;;;;;9.31;100.00;102140.53;4992511;28;20054;-79
2023/04/27 07:44:20;;;;;;;3.20;2.20;;;;;;;9.32;100.00;102147.59;5010498;28;20057;-79
2023/04/27 07:46:48;;;;;;;4.97;2.67;;;;;;;9.27;100.00;102142.19;4996591;28;20072;-79
2023/04/27 07:49:16;;;;;;;4.05;2.50;;;;;;;9.26;100.00;102147.38;5016054;28;20064;-79
2023/04/27 07:51:43;;;;;;;4.40;2.53;;;;;;;9.26;100.00;102136.88;5001253;28;20045;-79
2023/04/27 07:54:10;;;;;;;3.83;2.92;;;;;;;9.25;100.00;102143.88;4999952;28;20048;-78
2023/04/27 07:56:42;;;;;;;5.32;2.72;;;;;;;9.27;100.00;102152.69;5004682;28;20064;-79
2023/04/27 07:59:09;;;;;;;5.05;2.80;;;;;;;9.32;100.00;102140.59;5035940;28;20406;-80
2023/04/27 08:01:43;;;;;;;8.52;2.75;;;;;;;9.36;100.00;102147.72;5019387;28;20057;-79
2023/04/27 08:04:11;;;;;;;3.00;2.72;;;;;;;9.38;100.00;102146.88;5029703;28;20060;-79
2023/04/27 08:06:38;;;;;;;4.25;2.50;;;;;;;9.45;100.00;102148.81;5010683;28;20045;-79
2023/04/27 08:09:08;;;;;;;6.25;2.20;;;;;;;9.45;100.00;102143.56;4993050;28;20056;-79
2023/04/27 08:11:35;;;;;;;3.90;2.30;;;;;;;9.55;100.00;102138.59;5023321;28;20394;-79
2023/04/27 08:14:03;;;;;;;3.47;2.38;;;;;;;9.66;100.00;102133.66;5030712;28;20040;-78
2023/04/27 08:16:30;;;;;;;6.18;2.78;;;;;;;9.80;100.00;102141.03;5010424;28;20046;-80
2023/04/27 08:18:57;;;;;;;7.43;3.28;;;;;;;9.94;100.00;102139.63;4992736;28;20474;-80
2023/04/27 08:21:29;;;;;;;6.30;2.60;;;;;;;10.00;100.00;102138.91;5027615;28;20057;-80
2023/04/27 08:23:56;;;;;;;2.78;2.42;;;;;;;10.08;100.00;102146.16;4990258;28;20053;-81
2023/04/27 08:26:25;;;;;;;2.80;2.20;;;;;;;10.11;100.00;102148.88;5029407;28;20060;-80
2023/04/27 08:28:52;;;;;;;4.70;2.60;;;;;;;10.22;100.00;102148.25;5014332;28;20053;-79
2023/04/27 08:31:20;;;;;;;4.45;2.28;;;;;;;10.33;100.00;102141.56;5017683;28;20041;-78
2023/04/27 08:33:56;;;;;;;;;;;;;;;10.47;100.00;102137.53;5004576;28;20785;-79
2023/04/27 08:36:25;;;;;;;;;;;;;;;10.62;97.06;102141.34;5045609;28;19924;-80
2023/04/27 08:38:52;;;;;;;;;;;;;;;10.70;90.32;102139.81;5007119;28;19947;-80
2023/04/27 08:41:20;;;;;;;;;;;;;;;10.75;84.29;102137.28;5032796;28;19925;-79
2023/04/27 08:43:49;;;;;;;;;;;;;;;10.79;84.74;102134.72;5017297;28;19925;-80
2023/04/27 08:46:19;;;;;;;;;;;;;;;10.82;81.50;102136.56;5031298;28;20374;-79
2023/04/27 08:48:48;;;;;;;;;;;;;;;10.92;86.32;102139.41;5024096;28;19936;-78
2023/04/27 08:51:16;;;;;;;;;;;;;;;11.04;86.13;102130.91;5049355;28;20309;-80
2023/04/27 08:53:50;;;;;;;;;;;;;;;11.14;85.88;102133.75;5002583;28;19920;-79
2023/04/27 08:56:18;;;;;;;;;;;;;;;11.20;84.54;102137.41;5028820;28;19920;-80
2023/04/27 08:58:45;;;;;;;;;;;;;;;11.10;79.89;102133.69;5026536;28;19953;-80
2023/04/27 09:01:12;;;;;;;;;;;;;;;11.02;80.64;102126.44;5046963;28;19972;-81
2023/04/27 09:03:40;;;;;;;;;;;;;;;10.95;79.63;102135.09;5047009;28;19931;-83
2023/04/27 09:06:08;;;;;;;;;;;;;;;10.80;74.04;102139.16;5034074;28;19944;-82
2023/04/27 09:08:41;;;;;;;;;;;;;;;10.74;78.18;102141.66;5031511;28;20317;-80
2023/04/27 09:11:08;;;;;;;;;;;;;;;10.77;79.91;102144.34;5002565;28;20298;-82
2023/04/27 09:13:40;;;;;;;;;;;;;;;10.82;79.07;102145.34;5025519;28;19920;-80
2023/04/27 09:16:08;;;;;;;;;;;;;;;10.90;77.94;102143.78;5027732;28;20293;-80
2023/04/27 09:18:36;;;;;;;;;;;;;;;11.01;78.59;102140.50;5025748;28;19931;-80
2023/04/27 09:21:05;;;;;;;;;;;;;;;11.02;77.51;102139.63;5030242;28;19928;-80
2023/04/27 09:23:33;;;;;;;;;;;;;;;11.05;75.05;102148.50;5028201;28;19924;-80
2023/04/27 09:26:06;;;;;;;;;;;;;;;11.05;72.40;102150.25;4989923;28;19925;-79
2023/04/27 09:28:36;;;;;;;;;;;;;;;11.02;70.74;102148.47;5010213;28;19929;-79
2023/04/27 09:31:04;;;;;;;;;;;;;;;11.04;76.71;102145.81;4998058;28;20298;-80
2023/04/27 09:33:32;;;;;;;;;;;;;;;11.09;76.54;102149.47;4998063;28;20341;-80
2023/04/27 09:36:00;;;;;;;;;;;;;;;11.14;75.14;102141.66;5011550;28;19921;-80
2023/04/27 09:38:28;;;;;;;;;;;;;;;11.07;71.65;102149.44;5012698;28;19927;-80
2023/04/27 09:40:56;;;;;;;;;;;;;;;11.02;72.47;102145.81;5048950;28;19928;-80
2023/04/27 09:43:23;;;;;;;;;;;;;;;10.98;71.73;102138.66;4992703;28;19928;-80
2023/04/27 09:45:50;;;;;;;;;;;;;;;11.00;72.98;102141.34;5033838;28;19921;-80
2023/04/27 09:48:19;;;;;;;;;;;;;;;11.04;76.69;102143.19;5023825;28;19928;-80
2023/04/27 09:50:48;;;;;;;;;;;;;;;11.11;74.91;102140.75;4991131;28;19921;-80
2023/04/27 09:53:17;;;;;;;;;;;;;;;11.21;79.86;102147.09;5029669;28;20371;-80
2023/04/27 09:55:45;;;;;;;;;;;;;;;11.32;74.69;102137.66;5004317;28;19925;-81
2023/04/27 09:58:27;;;;;;;;;;;;;;;11.32;74.83;102145.59;4970800;28;19921;-80
2023/04/27 10:00:57;;;;;;;;;;;;;;;11.38;76.71;102149.19;5044375;28;19921;-81
2023/04/27 10:03:42;;;;;;;;;;;;;;;11.45;78.96;102151.09;5011819;28;19921;-81
2023/04/27 10:06:31;;;;;;;;;;;;;;;11.39;71.74;102143.94;5027740;28;19921;-80
2023/04/27 10:08:59;;;;;;;;;;;;;;;11.36;72.10;102143.91;5016204;28;19925;-80
2023/04/27 10:11:52;;;;;;;;;;;;;;;11.38;71.04;102152.75;5028189;28;19932;-79
2023/04/27 10:14:22;;;;;;;;;;;;;;;11.32;70.66;102145.59;5003266;28;19929;-79
2023/04/27 10:16:53;;;;;;;;;;;;;;;11.25;67.15;102151.59;5038036;28;19925;-79
2023/04/27 10:19:22;;;;;;;;;;;;;;;11.05;64.29;102147.63;5026518;28;19921;-80
2023/04/27 10:21:53;;;;;;;;;;;;;;;10.95;67.77;102143.00;5019054;28;19932;-79
2023/04/27 10:24:30;;;;;;;;;;;;;;;10.85;67.66;102144.53;5019961;28;19932;-80
2023/04/27 10:27:02;;;;;;;;;;;;;;;10.78;66.66;102142.63;5017166;28;19925;-79
2023/04/27 10:29:36;;;;;;;;;;;;;;;10.70;67.93;102138.06;4994058;28;19929;-79
2023/04/27 10:32:32;;;;;;;;;;;;;;;10.59;66.56;102151.84;5023871;28;19928;-79
2023/04/27 10:35:06;;;;;;;;;;;;;;;10.46;71.50;102141.00;5022308;28;19931;-81
2023/04/27 10:37:40;;;;;;;;;;;;;;;10.48;72.78;102148.94;5035790;28;20649;-82
2023/04/27 10:40:16;;;;;;;;;;;;;;;10.47;74.00;102155.06;5032966;28;19921;-82
2023/04/27 10:42:44;;;;;;;;;;;;;;;10.45;74.63;102154.13;5043150;28;19921;-80
2023/04/27 10:45:12;;;;;;;;;;;;;;;10.42;73.69;102147.06;4981491;28;20004;-81
2023/04/27 10:47:44;;;;;;;;;;;;;;;10.39;74.56;102149.59;5038030;28;19931;-80
2023/04/27 10:50:12;;;;;;;;;;;;;;;10.38;76.55;102141.66;5041951;28;19921;-81
2023/04/27 10:52:43;;;;;;;;;;;;;;;10.41;77.52;102147.88;5024659;28;19946;-80
2023/04/27 10:55:14;;;;;;;;;;;;;;;10.44;75.91;102142.72;5014732;28;19925;-81
2023/04/27 10:57:52;;;;;;;;;;;;;;;10.49;75.82;102135.81;5045187;28;19921;-82
2023/04/27 11:00:27;;;;;;;;;;;;;;;10.49;75.78;102143.72;4993456;28;19936;-81
2023/04/27 11:02:55;;;;;;;;;;;;;;;10.51;74.68;102139.38;5037157;28;19927;-79
2023/04/27 11:05:32;;;;;;;;;;;;;;;10.56;74.25;102141.22;5044888;28;19921;-81
2023/04/27 11:08:06;;;;;;;;;;;;;;;10.58;76.07;102137.75;5037833;28;19921;-80
2023/04/27 11:10:36;;;;;;;;;;;;;;;10.57;73.14;102130.72;5004343;28;19932;-79
2023/04/27 11:13:08;;;;;;;;;;;;;;;10.55;75.27;102137.72;5023896;28;19929;-80
2023/04/27 11:15:45;;;;;;;;;;;;;;;10.54;75.24;102125.38;5000032;28;19925;-79
2023/04/27 11:18:14;;;;;;;;;;;;;;;10.53;73.90;102132.41;5046295;28;19925;-80
2023/04/27 11:20:42;;;;;;;;;;;;;;;10.57;75.14;102137.72;5033830;28;19921;-79
2023/04/27 11:23:21;;;;;;;;;;;;;;;10.58;74.13;102135.13;5043930;28;19920;-80
2023/04/27 11:25:48;;;;;;;;;;;;;;;10.57;75.71;102136.00;5020589;28;19929;-81
2023/04/27 11:28:18;;;;;;;;;;;;;;;10.56;71.18;102143.84;5021626;28;19936;-81
2023/04/27 11:30:46;;;;;;;;;;;;;;;10.55;72.35;102140.34;4995425;28;19924;-81
2023/04/27 11:33:14;;;;;;;;;;;;;;;10.58;71.36;102134.25;5003084;28;19921;-81
2023/04/27 11:35:41;;;;;;;;;;;;;;;10.66;73.76;102138.84;5019347;28;19921;-80
2023/04/27 11:38:14;;;;;;;;;;;;;;;10.80;73.68;102136.53;5027255;28;19928;-80
2023/04/27 11:40:41;;;;;;;;;;;;;;;10.89;71.94;102136.75;5031344;28;19925;-79
2023/04/27 11:43:12;;;;;;;;;;;;;;;10.98;71.58;102137.78;5022390;28;19921;-80
2023/04/27 11:45:45;;;;;;;;;;;;;;;11.04;70.35;102140.56;5032281;28;19932;-79
2023/04/27 11:48:14;;;;;;;;;;;;;;;11.11;71.41;102131.91;5021741;28;19920;-79
2023/04/27 11:50:48;;;;;;;;;;;;;;;11.18;68.31;102132.97;5030432;28;19936;-78
2023/04/27 11:53:16;;;;;;;;;;;;;;;11.17;72.26;102129.44;5016188;28;19925;-78